CDT,Max TemperatureF,Mean TemperatureF,Min TemperatureF,Max Dew PointF,MeanDew PointF,Min DewpointF,Max Humidity, Mean Humidity, Min Humidity, Max Sea Level PressureIn, Mean Sea Level PressureIn, Min Sea Level PressureIn, Max VisibilityMiles, Mean VisibilityMiles, Min VisibilityMiles, Max Wind SpeedMPH, Mean Wind SpeedMPH, Max Gust SpeedMPH,PrecipitationIn, CloudCover, Events, WindDirDegrees
2012-10-1,73,62,51,54,50,45,94,68,40,30.12,30.06,29.98,10,10,10,23,11,34,0.00,2,Thunderstorm,357
2012-10-2,73,58,44,50,46,43,93,65,36,30.14,30.06,29.95,10,10,10,9,5,,0.00,0,,226
2012-10-3,78,64,50,55,50,46,94,63,34,29.96,29.93,29.88,10,10,10,16,8,21,0.00,0,,184
2012-10-4,62,56,50,54,43,36,94,65,45,30.25,30.13,29.94,10,10,7,28,12,38,0.00,2,,52
2012-10-5,69,56,42,50,44,41,93,71,43,30.20,30.14,30.06,10,10,10,17,6,23,0.00,0,,92
2012-10-6,50,44,39,41,31,28,71,60,50,30.30,30.21,30.16,10,10,10,22,14,28,0.00,8,,71
2012-10-7,50,42,33,32,31,28,93,71,50,30.31,30.24,30.17,10,10,10,8,5,,0.00,3,,115
2012-10-8,69,50,32,45,35,28,93,66,31,30.20,30.09,29.95,10,10,10,17,8,23,0.00,0,,213
2012-10-9,86,65,44,46,37,23,93,46,11,30.09,29.94,29.90,10,10,7,18,9,24,0.00,0,,307
2012-10-10,55,50,46,46,42,37,93,70,58,30.26,30.17,30.09,10,10,7,17,11,23,0.00,5,,82
2012-10-11,78,64,50,63,56,46,94,77,51,30.13,30.10,30.05,10,10,5,18,8,26,0.00,3,,201
2012-10-12,73,66,59,66,61,52,100,86,69,30.20,30.11,30.00,10,9,2,17,8,30,0.01,4,Rain-Thunderstorm,172
2012-10-13,73,64,53,64,46,27,94,54,18,30.01,29.94,29.89,10,10,10,30,18,41,0.00,1,Rain-Thunderstorm,242
2012-10-14,73,62,50,45,41,37,76,52,27,30.27,30.17,30.02,10,10,2,13,8,21,0.00,0,,344
2012-10-15,77,62,46,45,40,32,87,51,19,30.21,30.09,29.95,10,10,10,21,7,26,0.00,0,,219
2012-10-16,82,68,53,50,41,32,88,46,16,29.94,29.78,29.65,10,10,10,18,9,23,0.00,0,,248
2012-10-17,73,62,50,36,33,28,47,31,23,29.92,29.77,29.61,10,10,1,20,11,26,0.01,0,,12
2012-10-18,69,53,37,32,28,23,75,41,18,30.10,30.02,29.93,10,10,5,12,4,,0.00,0,,138
2012-10-19,77,56,35,43,34,28,81,48,22,30.10,30.01,29.88,10,10,7,12,4,16,0.00,0,,198
2012-10-20,89,65,41,43,30,12,81,38,6,29.88,29.79,29.73,10,10,10,16,8,17,0.00,0,,249
2012-10-21,87,69,51,43,36,30,67,36,13,29.86,29.81,29.77,10,10,10,24,11,30,0.00,0,,237
2012-10-22,82,70,59,63,43,30,94,40,16,29.95,29.90,29.85,10,10,7,21,12,28,0.00,0,,213
2012-10-23,86,68,50,61,49,41,94,55,22,29.96,29.90,29.86,10,10,5,16,10,20,0.00,0,,209
2012-10-24,82,70,57,64,59,50,100,74,42,29.91,29.84,29.75,10,8,0,18,11,24,0.03,1,Fog,198
2012-10-25,68,54,41,61,40,30,100,65,41,30.22,30.02,29.75,10,10,3,23,14,31,0.01,1,,22
2012-10-26,51,42,32,30,23,16,87,54,26,30.39,30.32,30.22,10,10,10,17,10,23,0.00,0,,37
2012-10-27,53,38,24,25,21,18,80,51,28,30.36,30.24,30.12,10,10,10,12,3,17,0.00,0,,182
2012-10-28,59,44,30,28,26,23,80,52,27,30.24,30.19,30.11,10,10,10,15,4,17,0.00,0,,199
2012-10-29,69,51,33,36,31,27,81,53,27,30.22,30.14,30.06,10,10,10,16,7,18,0.00,0,,179
2012-10-30,77,55,33,37,33,30,93,47,19,30.08,30.05,30.01,10,10,7,7,2,,0.00,0,,151
2012-10-31,78,56,35,36,32,28,81,41,17,30.13,30.09,30.05,10,8,1,10,5,10,0.00,0,,231